sensor_id;sensor_type;location;lat;lon;timestamp;P1;durP1;ratioP1;P2;durP2;ratioP2
63378;SDS011;49509;54.996;73.270;2022-09-09T00:04:09;4.75;;;4.75;;
63378;SDS011;49509;54.996;73.270;2022-09-09T00:09:18;7.75;;;6.50;;
63378;SDS011;49509;54.996;73.270;2022-09-09T00:11:49;6.75;;;6.75;;
63378;SDS011;49509;54.996;73.270;2022-09-09T00:16:56;5.00;;;3.75;;
63378;SDS011;49509;54.996;73.270;2022-09-09T00:19:38;6.25;;;4.75;;
63378;SDS011;49509;54.996;73.270;2022-09-09T00:22:17;5.25;;;5.00;;
63378;SDS011;49509;54.996;73.270;2022-09-09T00:24:45;5.50;;;5.00;;
63378;SDS011;49509;54.996;73.270;2022-09-09T00:27:16;6.00;;;6.00;;
63378;SDS011;49509;54.996;73.270;2022-09-09T00:29:47;4.50;;;4.50;;
63378;SDS011;49509;54.996;73.270;2022-09-09T00:32:19;1.50;;;1.00;;
63378;SDS011;49509;54.996;73.270;2022-09-09T00:34:51;3.00;;;2.50;;
63378;SDS011;49509;54.996;73.270;2022-09-09T00:37:19;6.50;;;6.50;;
63378;SDS011;49509;54.996;73.270;2022-09-09T00:39:51;12.25;;;10.50;;
63378;SDS011;49509;54.996;73.270;2022-09-09T00:42:24;29.00;;;27.75;;
63378;SDS011;49509;54.996;73.270;2022-09-09T00:47:50;10.00;;;10.00;;
63378;SDS011;49509;54.996;73.270;2022-09-09T00:55:19;8.50;;;7.00;;
63378;SDS011;49509;54.996;73.270;2022-09-09T00:57:48;5.75;;;5.50;;
63378;SDS011;49509;54.996;73.270;2022-09-09T01:00:29;5.75;;;5.75;;
63378;SDS011;49509;54.996;73.270;2022-09-09T01:05:46;8.00;;;7.25;;
63378;SDS011;49509;54.996;73.270;2022-09-09T01:10:50;7.50;;;7.50;;
63378;SDS011;49509;54.996;73.270;2022-09-09T01:13:34;7.25;;;7.25;;
63378;SDS011;49509;54.996;73.270;2022-09-09T01:16:07;10.50;;;8.75;;
63378;SDS011;49509;54.996;73.270;2022-09-09T01:18:44;11.25;;;10.00;;
63378;SDS011;49509;54.996;73.270;2022-09-09T01:26:44;13.00;;;11.50;;
63378;SDS011;49509;54.996;73.270;2022-09-09T01:29:24;11.00;;;11.00;;
63378;SDS011;49509;54.996;73.270;2022-09-09T01:31:55;15.75;;;15.25;;
63378;SDS011;49509;54.996;73.270;2022-09-09T01:34:33;12.00;;;12.00;;
63378;SDS011;49509;54.996;73.270;2022-09-09T01:37:03;15.00;;;15.00;;
63378;SDS011;49509;54.996;73.270;2022-09-09T01:39:32;16.25;;;14.75;;
63378;SDS011;49509;54.996;73.270;2022-09-09T01:42:03;8.00;;;8.00;;
63378;SDS011;49509;54.996;73.270;2022-09-09T01:44:37;15.00;;;13.50;;
63378;SDS011;49509;54.996;73.270;2022-09-09T01:47:04;14.75;;;14.50;;
63378;SDS011;49509;54.996;73.270;2022-09-09T01:49:31;13.50;;;13.50;;
63378;SDS011;49509;54.996;73.270;2022-09-09T01:52:04;14.00;;;14.00;;
63378;SDS011;49509;54.996;73.270;2022-09-09T01:54:39;14.25;;;13.25;;
63378;SDS011;49509;54.996;73.270;2022-09-09T01:57:15;17.00;;;14.50;;
63378;SDS011;49509;54.996;73.270;2022-09-09T02:02:24;10.50;;;10.00;;
63378;SDS011;49509;54.996;73.270;2022-09-09T02:05:52;9.50;;;7.00;;
63378;SDS011;49509;54.996;73.270;2022-09-09T02:08:00;11.75;;;11.00;;
63378;SDS011;49509;54.996;73.270;2022-09-09T02:13:27;10.75;;;8.25;;
63378;SDS011;49509;54.996;73.270;2022-09-09T02:16:06;8.00;;;8.00;;
63378;SDS011;49509;54.996;73.270;2022-09-09T02:18:42;2.75;;;2.75;;
63378;SDS011;49509;54.996;73.270;2022-09-09T02:21:11;6.75;;;6.75;;
63378;SDS011;49509;54.996;73.270;2022-09-09T02:23:37;4.00;;;4.00;;
63378;SDS011;49509;54.996;73.270;2022-09-09T02:26:09;6.75;;;6.25;;
63378;SDS011;49509;54.996;73.270;2022-09-09T02:28:36;9.00;;;8.00;;
63378;SDS011;49509;54.996;73.270;2022-09-09T02:31:04;10.25;;;9.00;;
63378;SDS011;49509;54.996;73.270;2022-09-09T02:33:39;8.75;;;8.75;;
63378;SDS011;49509;54.996;73.270;2022-09-09T02:36:08;10.50;;;9.00;;
63378;SDS011;49509;54.996;73.270;2022-09-09T02:38:40;9.00;;;8.75;;
63378;SDS011;49509;54.996;73.270;2022-09-09T02:41:12;7.25;;;6.25;;
63378;SDS011;49509;54.996;73.270;2022-09-09T02:43:39;7.00;;;7.00;;
63378;SDS011;49509;54.996;73.270;2022-09-09T02:48:58;7.50;;;5.50;;
63378;SDS011;49509;54.996;73.270;2022-09-09T02:51:41;6.25;;;5.50;;
63378;SDS011;49509;54.996;73.270;2022-09-09T02:54:27;5.25;;;5.25;;
63378;SDS011;49509;54.996;73.270;2022-09-09T02:57:04;7.25;;;7.25;;
63378;SDS011;49509;54.996;73.270;2022-09-09T02:59:36;6.75;;;5.75;;
63378;SDS011;49509;54.996;73.270;2022-09-09T03:02:08;7.75;;;7.75;;
63378;SDS011;49509;54.996;73.270;2022-09-09T03:04:46;16.75;;;14.00;;
63378;SDS011;49509;54.996;73.270;2022-09-09T03:07:21;8.25;;;8.25;;
63378;SDS011;49509;54.996;73.270;2022-09-09T03:09:53;17.25;;;15.50;;
63378;SDS011;49509;54.996;73.270;2022-09-09T03:12:24;8.25;;;8.25;;
63378;SDS011;49509;54.996;73.270;2022-09-09T03:14:51;7.75;;;7.50;;
63378;SDS011;49509;54.996;73.270;2022-09-09T03:17:22;4.75;;;4.75;;
63378;SDS011;49509;54.996;73.270;2022-09-09T03:19:58;5.00;;;5.00;;
63378;SDS011;49509;54.996;73.270;2022-09-09T03:22:34;7.00;;;5.75;;
63378;SDS011;49509;54.996;73.270;2022-09-09T03:25:02;5.00;;;5.00;;
63378;SDS011;49509;54.996;73.270;2022-09-09T03:27:29;4.50;;;4.50;;
63378;SDS011;49509;54.996;73.270;2022-09-09T03:30:00;5.00;;;4.50;;
63378;SDS011;49509;54.996;73.270;2022-09-09T03:32:30;7.00;;;7.00;;
63378;SDS011;49509;54.996;73.270;2022-09-09T03:34:57;5.75;;;5.75;;
63378;SDS011;49509;54.996;73.270;2022-09-09T03:37:24;4.50;;;4.50;;
63378;SDS011;49509;54.996;73.270;2022-09-09T03:39:51;4.50;;;3.00;;
63378;SDS011;49509;54.996;73.270;2022-09-09T03:42:21;4.00;;;3.00;;
63378;SDS011;49509;54.996;73.270;2022-09-09T03:44:56;2.60;;;2.60;;
63378;SDS011;49509;54.996;73.270;2022-09-09T03:47:24;3.00;;;3.00;;
63378;SDS011;49509;54.996;73.270;2022-09-09T03:50:00;3.75;;;3.75;;
63378;SDS011;49509;54.996;73.270;2022-09-09T03:52:28;3.50;;;3.50;;
63378;SDS011;49509;54.996;73.270;2022-09-09T03:55:00;3.00;;;3.00;;
63378;SDS011;49509;54.996;73.270;2022-09-09T03:57:33;3.60;;;3.60;;
63378;SDS011;49509;54.996;73.270;2022-09-09T04:00:07;3.60;;;3.60;;
63378;SDS011;49509;54.996;73.270;2022-09-09T04:02:42;4.40;;;4.40;;
63378;SDS011;49509;54.996;73.270;2022-09-09T04:05:12;5.00;;;4.00;;
63378;SDS011;49509;54.996;73.270;2022-09-09T04:07:43;4.00;;;4.00;;
63378;SDS011;49509;54.996;73.270;2022-09-09T04:10:10;4.00;;;3.00;;
63378;SDS011;49509;54.996;73.270;2022-09-09T04:12:38;1.60;;;1.20;;
63378;SDS011;49509;54.996;73.270;2022-09-09T04:15:04;2.25;;;2.25;;
63378;SDS011;49509;54.996;73.270;2022-09-09T04:17:41;5.00;;;5.00;;
63378;SDS011;49509;54.996;73.270;2022-09-09T04:20:08;3.40;;;3.40;;
63378;SDS011;49509;54.996;73.270;2022-09-09T04:22:37;0.60;;;0.60;;
63378;SDS011;49509;54.996;73.270;2022-09-09T04:25:06;2.75;;;2.75;;
63378;SDS011;49509;54.996;73.270;2022-09-09T04:27:32;3.75;;;3.75;;
63378;SDS011;49509;54.996;73.270;2022-09-09T04:29:58;4.00;;;3.25;;
63378;SDS011;49509;54.996;73.270;2022-09-09T04:32:37;2.00;;;2.00;;
63378;SDS011;49509;54.996;73.270;2022-09-09T04:35:03;3.00;;;3.00;;
63378;SDS011;49509;54.996;73.270;2022-09-09T04:37:35;1.80;;;1.80;;
63378;SDS011;49509;54.996;73.270;2022-09-09T04:40:11;4.40;;;4.40;;
63378;SDS011;49509;54.996;73.270;2022-09-09T04:42:38;3.40;;;3.40;;
63378;SDS011;49509;54.996;73.270;2022-09-09T04:45:06;3.20;;;3.20;;
63378;SDS011;49509;54.996;73.270;2022-09-09T04:47:39;2.80;;;2.80;;
63378;SDS011;49509;54.996;73.270;2022-09-09T04:50:17;3.20;;;3.20;;
63378;SDS011;49509;54.996;73.270;2022-09-09T04:52:46;3.80;;;2.80;;
63378;SDS011;49509;54.996;73.270;2022-09-09T04:55:13;4.00;;;2.40;;
63378;SDS011;49509;54.996;73.270;2022-09-09T04:57:52;2.20;;;2.20;;
63378;SDS011;49509;54.996;73.270;2022-09-09T05:00:19;3.20;;;3.20;;
63378;SDS011;49509;54.996;73.270;2022-09-09T05:02:45;2.20;;;2.20;;
63378;SDS011;49509;54.996;73.270;2022-09-09T05:05:32;1.20;;;1.20;;
63378;SDS011;49509;54.996;73.270;2022-09-09T05:08:01;2.80;;;2.80;;
63378;SDS011;49509;54.996;73.270;2022-09-09T05:10:29;1.00;;;1.00;;
63378;SDS011;49509;54.996;73.270;2022-09-09T05:12:59;2.60;;;2.60;;
63378;SDS011;49509;54.996;73.270;2022-09-09T05:15:39;4.00;;;4.00;;
63378;SDS011;49509;54.996;73.270;2022-09-09T05:18:05;2.80;;;2.80;;
63378;SDS011;49509;54.996;73.270;2022-09-09T05:20:32;2.80;;;2.80;;
63378;SDS011;49509;54.996;73.270;2022-09-09T05:22:58;3.60;;;3.40;;
63378;SDS011;49509;54.996;73.270;2022-09-09T05:25:28;2.60;;;2.60;;
63378;SDS011;49509;54.996;73.270;2022-09-09T05:27:55;2.80;;;2.00;;
63378;SDS011;49509;54.996;73.270;2022-09-09T05:30:22;1.60;;;1.60;;
63378;SDS011;49509;54.996;73.270;2022-09-09T05:32:58;4.00;;;4.00;;
63378;SDS011;49509;54.996;73.270;2022-09-09T05:35:26;5.00;;;4.00;;
63378;SDS011;49509;54.996;73.270;2022-09-09T05:38:02;5.80;;;5.80;;
63378;SDS011;49509;54.996;73.270;2022-09-09T05:40:29;4.80;;;4.80;;
63378;SDS011;49509;54.996;73.270;2022-09-09T05:42:59;3.00;;;3.00;;
63378;SDS011;49509;54.996;73.270;2022-09-09T05:45:25;3.00;;;3.00;;
63378;SDS011;49509;54.996;73.270;2022-09-09T05:47:52;5.20;;;4.40;;
63378;SDS011;49509;54.996;73.270;2022-09-09T05:50:21;9.20;;;8.00;;
63378;SDS011;49509;54.996;73.270;2022-09-09T05:52:50;4.00;;;4.00;;
63378;SDS011;49509;54.996;73.270;2022-09-09T05:55:20;4.80;;;4.80;;
63378;SDS011;49509;54.996;73.270;2022-09-09T05:57:49;4.00;;;4.00;;
63378;SDS011;49509;54.996;73.270;2022-09-09T06:00:18;3.00;;;3.00;;
63378;SDS011;49509;54.996;73.270;2022-09-09T06:02:51;4.00;;;3.00;;
63378;SDS011;49509;54.996;73.270;2022-09-09T06:05:19;3.00;;;3.00;;
63378;SDS011;49509;54.996;73.270;2022-09-09T06:07:55;1.20;;;1.00;;
63378;SDS011;49509;54.996;73.270;2022-09-09T06:10:32;2.80;;;2.80;;
63378;SDS011;49509;54.996;73.270;2022-09-09T06:13:04;2.20;;;2.20;;
63378;SDS011;49509;54.996;73.270;2022-09-09T06:15:35;2.20;;;2.00;;
63378;SDS011;49509;54.996;73.270;2022-09-09T06:18:13;1.20;;;1.20;;
63378;SDS011;49509;54.996;73.270;2022-09-09T06:20:39;2.20;;;2.20;;
63378;SDS011;49509;54.996;73.270;2022-09-09T06:23:07;2.80;;;2.00;;
63378;SDS011;49509;54.996;73.270;2022-09-09T06:25:36;2.60;;;2.60;;
63378;SDS011;49509;54.996;73.270;2022-09-09T06:28:05;2.80;;;2.80;;
63378;SDS011;49509;54.996;73.270;2022-09-09T06:30:42;2.00;;;2.00;;
63378;SDS011;49509;54.996;73.270;2022-09-09T06:33:15;2.20;;;2.20;;
63378;SDS011;49509;54.996;73.270;2022-09-09T06:35:42;2.00;;;2.00;;
63378;SDS011;49509;54.996;73.270;2022-09-09T06:38:09;2.40;;;2.00;;
63378;SDS011;49509;54.996;73.270;2022-09-09T06:40:36;1.60;;;1.60;;
63378;SDS011;49509;54.996;73.270;2022-09-09T06:43:12;3.00;;;1.80;;
63378;SDS011;49509;54.996;73.270;2022-09-09T06:45:55;2.00;;;2.00;;
63378;SDS011;49509;54.996;73.270;2022-09-09T06:48:22;2.80;;;2.80;;
63378;SDS011;49509;54.996;73.270;2022-09-09T06:50:49;2.40;;;2.40;;
63378;SDS011;49509;54.996;73.270;2022-09-09T06:53:26;2.00;;;2.00;;
63378;SDS011;49509;54.996;73.270;2022-09-09T06:58:37;2.00;;;2.00;;
63378;SDS011;49509;54.996;73.270;2022-09-09T07:01:04;2.80;;;2.20;;
63378;SDS011;49509;54.996;73.270;2022-09-09T07:03:37;2.00;;;2.00;;
63378;SDS011;49509;54.996;73.270;2022-09-09T07:06:05;2.60;;;2.60;;
63378;SDS011;49509;54.996;73.270;2022-09-09T07:08:32;2.20;;;1.80;;
63378;SDS011;49509;54.996;73.270;2022-09-09T07:11:09;1.20;;;1.20;;
63378;SDS011;49509;54.996;73.270;2022-09-09T07:13:37;3.80;;;3.80;;
63378;SDS011;49509;54.996;73.270;2022-09-09T07:16:11;2.00;;;2.00;;
63378;SDS011;49509;54.996;73.270;2022-09-09T07:18:49;1.40;;;1.40;;
63378;SDS011;49509;54.996;73.270;2022-09-09T07:21:16;5.00;;;5.00;;
63378;SDS011;49509;54.996;73.270;2022-09-09T07:23:52;3.00;;;3.00;;
63378;SDS011;49509;54.996;73.270;2022-09-09T07:26:20;2.00;;;2.00;;
63378;SDS011;49509;54.996;73.270;2022-09-09T07:28:47;1.80;;;1.80;;
63378;SDS011;49509;54.996;73.270;2022-09-09T07:31:20;2.20;;;2.20;;
63378;SDS011;49509;54.996;73.270;2022-09-09T07:33:57;1.80;;;1.80;;
63378;SDS011;49509;54.996;73.270;2022-09-09T07:36:35;3.00;;;3.00;;
63378;SDS011;49509;54.996;73.270;2022-09-09T07:39:12;3.00;;;2.20;;
63378;SDS011;49509;54.996;73.270;2022-09-09T07:41:53;3.00;;;3.00;;
63378;SDS011;49509;54.996;73.270;2022-09-09T07:44:23;3.20;;;3.20;;
63378;SDS011;49509;54.996;73.270;2022-09-09T07:47:08;5.00;;;4.40;;
63378;SDS011;49509;54.996;73.270;2022-09-09T07:49:39;5.40;;;4.40;;
63378;SDS011;49509;54.996;73.270;2022-09-09T07:52:13;3.00;;;3.00;;
63378;SDS011;49509;54.996;73.270;2022-09-09T07:54:43;2.80;;;2.80;;
63378;SDS011;49509;54.996;73.270;2022-09-09T07:57:12;3.00;;;3.00;;
63378;SDS011;49509;54.996;73.270;2022-09-09T07:59:38;2.80;;;2.80;;
63378;SDS011;49509;54.996;73.270;2022-09-09T08:02:05;2.00;;;2.00;;
63378;SDS011;49509;54.996;73.270;2022-09-09T08:04:34;3.00;;;3.00;;
63378;SDS011;49509;54.996;73.270;2022-09-09T08:07:11;2.80;;;2.20;;
63378;SDS011;49509;54.996;73.270;2022-09-09T08:09:45;2.80;;;2.80;;
63378;SDS011;49509;54.996;73.270;2022-09-09T08:12:19;2.80;;;2.60;;
63378;SDS011;49509;54.996;73.270;2022-09-09T08:14:45;3.80;;;3.20;;
63378;SDS011;49509;54.996;73.270;2022-09-09T08:17:12;3.00;;;2.40;;
63378;SDS011;49509;54.996;73.270;2022-09-09T08:19:38;4.00;;;4.00;;
63378;SDS011;49509;54.996;73.270;2022-09-09T08:22:17;2.00;;;2.00;;
63378;SDS011;49509;54.996;73.270;2022-09-09T08:24:48;5.40;;;5.40;;
63378;SDS011;49509;54.996;73.270;2022-09-09T08:27:15;4.80;;;4.40;;
63378;SDS011;49509;54.996;73.270;2022-09-09T08:29:42;5.00;;;5.00;;
63378;SDS011;49509;54.996;73.270;2022-09-09T08:32:08;7.00;;;6.20;;
63378;SDS011;49509;54.996;73.270;2022-09-09T08:34:42;4.00;;;4.00;;
63378;SDS011;49509;54.996;73.270;2022-09-09T08:37:20;5.00;;;4.00;;
63378;SDS011;49509;54.996;73.270;2022-09-09T08:39:47;4.00;;;4.00;;
63378;SDS011;49509;54.996;73.270;2022-09-09T08:42:29;6.20;;;4.00;;
63378;SDS011;49509;54.996;73.270;2022-09-09T08:52:55;12.60;;;12.60;;
63378;SDS011;49509;54.996;73.270;2022-09-09T08:55:32;5.00;;;5.00;;
63378;SDS011;49509;54.996;73.270;2022-09-09T08:58:20;6.00;;;6.00;;
63378;SDS011;49509;54.996;73.270;2022-09-09T09:09:04;4.00;;;4.00;;
63378;SDS011;49509;54.996;73.270;2022-09-09T09:14:36;9.20;;;9.00;;
63378;SDS011;49509;54.996;73.270;2022-09-09T09:17:21;6.00;;;5.80;;
63378;SDS011;49509;54.996;73.270;2022-09-09T09:19:55;4.00;;;3.00;;
63378;SDS011;49509;54.996;73.270;2022-09-09T09:23:05;4.40;;;3.60;;
63378;SDS011;49509;54.996;73.270;2022-09-09T09:25:34;3.60;;;3.60;;
63378;SDS011;49509;54.996;73.270;2022-09-09T09:28:13;2.40;;;2.40;;
63378;SDS011;49509;54.996;73.270;2022-09-09T09:31:06;3.80;;;3.80;;
63378;SDS011;49509;54.996;73.270;2022-09-09T09:33:43;3.00;;;3.00;;
63378;SDS011;49509;54.996;73.270;2022-09-09T09:36:12;4.00;;;4.00;;
63378;SDS011;49509;54.996;73.270;2022-09-09T09:41:28;4.60;;;4.60;;
63378;SDS011;49509;54.996;73.270;2022-09-09T09:43:57;5.00;;;4.80;;
63378;SDS011;49509;54.996;73.270;2022-09-09T09:46:34;4.00;;;4.00;;
63378;SDS011;49509;54.996;73.270;2022-09-09T09:49:09;3.40;;;3.40;;
63378;SDS011;49509;54.996;73.270;2022-09-09T09:51:37;4.80;;;4.00;;
63378;SDS011;49509;54.996;73.270;2022-09-09T09:56:40;3.20;;;3.20;;
63378;SDS011;49509;54.996;73.270;2022-09-09T09:59:19;5.60;;;5.60;;
63378;SDS011;49509;54.996;73.270;2022-09-09T10:01:46;5.00;;;4.20;;
63378;SDS011;49509;54.996;73.270;2022-09-09T10:04:17;3.40;;;3.40;;
63378;SDS011;49509;54.996;73.270;2022-09-09T10:06:45;4.80;;;4.80;;
63378;SDS011;49509;54.996;73.270;2022-09-09T10:09:44;5.60;;;5.60;;
63378;SDS011;49509;54.996;73.270;2022-09-09T10:12:06;5.80;;;5.20;;
63378;SDS011;49509;54.996;73.270;2022-09-09T10:17:24;5.80;;;5.80;;
63378;SDS011;49509;54.996;73.270;2022-09-09T10:22:50;6.80;;;6.40;;
63378;SDS011;49509;54.996;73.270;2022-09-09T10:25:23;7.20;;;7.20;;
63378;SDS011;49509;54.996;73.270;2022-09-09T10:33:21;5.40;;;5.40;;
63378;SDS011;49509;54.996;73.270;2022-09-09T10:35:58;5.00;;;5.00;;
63378;SDS011;49509;54.996;73.270;2022-09-09T10:43:56;6.80;;;6.80;;
63378;SDS011;49509;54.996;73.270;2022-09-09T10:49:33;8.80;;;8.60;;
63378;SDS011;49509;54.996;73.270;2022-09-09T10:52:14;4.60;;;4.00;;
63378;SDS011;49509;54.996;73.270;2022-09-09T10:54:53;5.00;;;5.00;;
63378;SDS011;49509;54.996;73.270;2022-09-09T11:00:03;5.60;;;5.60;;
63378;SDS011;49509;54.996;73.270;2022-09-09T11:02:36;7.00;;;7.00;;
63378;SDS011;49509;54.996;73.270;2022-09-09T11:05:18;6.60;;;6.60;;
63378;SDS011;49509;54.996;73.270;2022-09-09T11:07:49;6.00;;;6.00;;
63378;SDS011;49509;54.996;73.270;2022-09-09T11:12:57;4.00;;;4.00;;
63378;SDS011;49509;54.996;73.270;2022-09-09T11:15:39;7.20;;;6.00;;
63378;SDS011;49509;54.996;73.270;2022-09-09T11:18:08;4.80;;;4.80;;
63378;SDS011;49509;54.996;73.270;2022-09-09T11:20:43;7.00;;;6.00;;
63378;SDS011;49509;54.996;73.270;2022-09-09T11:25:48;6.00;;;5.00;;
63378;SDS011;49509;54.996;73.270;2022-09-09T11:32:00;4.60;;;4.60;;
63378;SDS011;49509;54.996;73.270;2022-09-09T11:39:18;4.60;;;3.60;;
63378;SDS011;49509;54.996;73.270;2022-09-09T11:42:07;5.00;;;4.00;;
63378;SDS011;49509;54.996;73.270;2022-09-09T11:44:41;4.80;;;4.80;;
63378;SDS011;49509;54.996;73.270;2022-09-09T11:49:47;5.20;;;5.20;;
63378;SDS011;49509;54.996;73.270;2022-09-09T11:54:54;3.20;;;3.20;;
63378;SDS011;49509;54.996;73.270;2022-09-09T11:57:25;6.20;;;6.20;;
63378;SDS011;49509;54.996;73.270;2022-09-09T11:59:52;4.20;;;4.00;;
63378;SDS011;49509;54.996;73.270;2022-09-09T12:02:24;5.60;;;4.80;;
63378;SDS011;49509;54.996;73.270;2022-09-09T12:07:27;3.40;;;3.40;;
63378;SDS011;49509;54.996;73.270;2022-09-09T12:12:37;5.00;;;5.00;;
63378;SDS011;49509;54.996;73.270;2022-09-09T12:18:16;7.00;;;6.00;;
63378;SDS011;49509;54.996;73.270;2022-09-09T12:25:37;4.00;;;4.00;;
63378;SDS011;49509;54.996;73.270;2022-09-09T12:28:11;6.60;;;6.00;;
63378;SDS011;49509;54.996;73.270;2022-09-09T12:30:49;5.20;;;5.20;;
63378;SDS011;49509;54.996;73.270;2022-09-09T12:33:20;7.00;;;6.00;;
63378;SDS011;49509;54.996;73.270;2022-09-09T12:35:50;7.80;;;6.60;;
63378;SDS011;49509;54.996;73.270;2022-09-09T12:38:25;7.60;;;7.60;;
63378;SDS011;49509;54.996;73.270;2022-09-09T12:40:55;14.40;;;13.20;;
63378;SDS011;49509;54.996;73.270;2022-09-09T12:43:22;21.75;;;19.50;;
63378;SDS011;49509;54.996;73.270;2022-09-09T12:45:49;21.50;;;20.75;;
63378;SDS011;49509;54.996;73.270;2022-09-09T12:48:22;23.00;;;22.00;;
63378;SDS011;49509;54.996;73.270;2022-09-09T12:50:51;31.50;;;29.75;;
63378;SDS011;49509;54.996;73.270;2022-09-09T12:53:23;30.50;;;29.00;;
63378;SDS011;49509;54.996;73.270;2022-09-09T12:55:53;27.75;;;27.75;;
63378;SDS011;49509;54.996;73.270;2022-09-09T12:58:20;35.75;;;31.50;;
63378;SDS011;49509;54.996;73.270;2022-09-09T13:00:52;29.50;;;29.50;;
63378;SDS011;49509;54.996;73.270;2022-09-09T13:03:20;27.75;;;27.50;;
63378;SDS011;49509;54.996;73.270;2022-09-09T13:05:47;33.50;;;30.50;;
63378;SDS011;49509;54.996;73.270;2022-09-09T13:08:14;28.25;;;25.50;;
63378;SDS011;49509;54.996;73.270;2022-09-09T13:10:47;26.75;;;26.75;;
63378;SDS011;49509;54.996;73.270;2022-09-09T13:13:40;26.25;;;24.50;;
63378;SDS011;49509;54.996;73.270;2022-09-09T13:16:18;23.50;;;23.50;;
63378;SDS011;49509;54.996;73.270;2022-09-09T13:18:45;22.00;;;21.00;;
63378;SDS011;49509;54.996;73.270;2022-09-09T13:21:12;23.25;;;21.50;;
63378;SDS011;49509;54.996;73.270;2022-09-09T13:23:39;19.50;;;19.00;;
63378;SDS011;49509;54.996;73.270;2022-09-09T13:26:27;22.25;;;21.75;;
63378;SDS011;49509;54.996;73.270;2022-09-09T13:29:18;20.00;;;19.25;;
63378;SDS011;49509;54.996;73.270;2022-09-09T13:31:45;20.25;;;19.00;;
63378;SDS011;49509;54.996;73.270;2022-09-09T13:34:28;16.75;;;15.75;;
63378;SDS011;49509;54.996;73.270;2022-09-09T13:37:01;39.25;;;35.00;;
63378;SDS011;49509;54.996;73.270;2022-09-09T13:39:28;36.25;;;30.50;;
63378;SDS011;49509;54.996;73.270;2022-09-09T13:41:59;20.00;;;18.75;;
63378;SDS011;49509;54.996;73.270;2022-09-09T13:44:27;18.50;;;15.50;;
63378;SDS011;49509;54.996;73.270;2022-09-09T13:49:28;16.25;;;16.25;;
63378;SDS011;49509;54.996;73.270;2022-09-09T13:52:14;13.25;;;12.25;;
63378;SDS011;49509;54.996;73.270;2022-09-09T13:54:46;9.75;;;9.50;;
63378;SDS011;49509;54.996;73.270;2022-09-09T13:57:20;12.75;;;10.50;;
63378;SDS011;49509;54.996;73.270;2022-09-09T13:59:52;11.75;;;11.75;;
63378;SDS011;49509;54.996;73.270;2022-09-09T14:02:20;13.25;;;12.00;;
63378;SDS011;49509;54.996;73.270;2022-09-09T14:04:51;28.50;;;26.75;;
63378;SDS011;49509;54.996;73.270;2022-09-09T14:07:21;12.50;;;12.50;;
63378;SDS011;49509;54.996;73.270;2022-09-09T14:09:52;8.80;;;8.80;;
63378;SDS011;49509;54.996;73.270;2022-09-09T14:12:18;9.00;;;9.00;;
63378;SDS011;49509;54.996;73.270;2022-09-09T14:14:45;12.00;;;10.00;;
63378;SDS011;49509;54.996;73.270;2022-09-09T14:17:12;11.50;;;9.50;;
63378;SDS011;49509;54.996;73.270;2022-09-09T14:19:38;11.25;;;9.00;;
63378;SDS011;49509;54.996;73.270;2022-09-09T14:22:04;12.50;;;11.25;;
63378;SDS011;49509;54.996;73.270;2022-09-09T14:24:31;8.50;;;8.25;;
63378;SDS011;49509;54.996;73.270;2022-09-09T14:26:57;9.00;;;9.00;;
63378;SDS011;49509;54.996;73.270;2022-09-09T14:29:29;10.25;;;10.25;;
63378;SDS011;49509;54.996;73.270;2022-09-09T14:31:55;8.00;;;8.00;;
63378;SDS011;49509;54.996;73.270;2022-09-09T14:34:21;10.25;;;9.50;;
63378;SDS011;49509;54.996;73.270;2022-09-09T14:36:48;8.75;;;8.75;;
63378;SDS011;49509;54.996;73.270;2022-09-09T14:39:14;8.75;;;8.75;;
63378;SDS011;49509;54.996;73.270;2022-09-09T14:41:40;8.25;;;7.75;;
63378;SDS011;49509;54.996;73.270;2022-09-09T14:44:07;9.75;;;9.75;;
63378;SDS011;49509;54.996;73.270;2022-09-09T14:46:34;10.25;;;10.00;;
63378;SDS011;49509;54.996;73.270;2022-09-09T14:49:00;11.50;;;11.00;;
63378;SDS011;49509;54.996;73.270;2022-09-09T14:51:27;6.75;;;6.75;;
63378;SDS011;49509;54.996;73.270;2022-09-09T14:54:04;7.50;;;6.50;;
63378;SDS011;49509;54.996;73.270;2022-09-09T14:56:31;8.50;;;8.50;;
63378;SDS011;49509;54.996;73.270;2022-09-09T14:59:01;6.50;;;6.25;;
63378;SDS011;49509;54.996;73.270;2022-09-09T15:01:28;7.50;;;6.75;;
63378;SDS011;49509;54.996;73.270;2022-09-09T15:03:56;4.00;;;3.25;;
63378;SDS011;49509;54.996;73.270;2022-09-09T15:06:25;8.50;;;8.00;;
63378;SDS011;49509;54.996;73.270;2022-09-09T15:08:52;6.75;;;6.75;;
63378;SDS011;49509;54.996;73.270;2022-09-09T15:11:19;6.25;;;6.25;;
63378;SDS011;49509;54.996;73.270;2022-09-09T15:13:46;7.75;;;7.75;;
63378;SDS011;49509;54.996;73.270;2022-09-09T15:16:14;8.25;;;8.00;;
63378;SDS011;49509;54.996;73.270;2022-09-09T15:18:56;7.75;;;7.75;;
63378;SDS011;49509;54.996;73.270;2022-09-09T15:21:24;6.25;;;6.25;;
63378;SDS011;49509;54.996;73.270;2022-09-09T15:24:01;9.50;;;9.00;;
63378;SDS011;49509;54.996;73.270;2022-09-09T15:26:28;8.00;;;8.00;;
63378;SDS011;49509;54.996;73.270;2022-09-09T15:29:05;12.00;;;10.25;;
63378;SDS011;49509;54.996;73.270;2022-09-09T15:31:33;9.00;;;9.00;;
63378;SDS011;49509;54.996;73.270;2022-09-09T15:34:05;10.75;;;10.25;;
63378;SDS011;49509;54.996;73.270;2022-09-09T15:36:39;11.50;;;11.50;;
63378;SDS011;49509;54.996;73.270;2022-09-09T15:39:16;10.25;;;10.25;;
63378;SDS011;49509;54.996;73.270;2022-09-09T15:41:43;10.00;;;10.00;;
63378;SDS011;49509;54.996;73.270;2022-09-09T15:44:20;12.50;;;11.75;;
63378;SDS011;49509;54.996;73.270;2022-09-09T15:46:56;10.75;;;9.75;;
63378;SDS011;49509;54.996;73.270;2022-09-09T15:49:23;10.25;;;9.00;;
63378;SDS011;49509;54.996;73.270;2022-09-09T15:51:56;14.00;;;13.00;;
63378;SDS011;49509;54.996;73.270;2022-09-09T15:54:33;16.25;;;16.25;;
63378;SDS011;49509;54.996;73.270;2022-09-09T15:57:01;17.50;;;15.25;;
63378;SDS011;49509;54.996;73.270;2022-09-09T15:59:35;20.25;;;19.50;;
63378;SDS011;49509;54.996;73.270;2022-09-09T16:02:07;17.00;;;15.00;;
63378;SDS011;49509;54.996;73.270;2022-09-09T16:04:43;21.75;;;21.25;;
63378;SDS011;49509;54.996;73.270;2022-09-09T16:07:11;63.60;;;50.40;;
63378;SDS011;49509;54.996;73.270;2022-09-09T16:09:37;36.00;;;33.25;;
63378;SDS011;49509;54.996;73.270;2022-09-09T16:12:08;27.25;;;26.75;;
63378;SDS011;49509;54.996;73.270;2022-09-09T16:14:44;26.25;;;23.00;;
63378;SDS011;49509;54.996;73.270;2022-09-09T16:17:11;24.75;;;23.50;;
63378;SDS011;49509;54.996;73.270;2022-09-09T16:19:40;21.50;;;20.25;;
63378;SDS011;49509;54.996;73.270;2022-09-09T16:22:12;24.25;;;20.75;;
63378;SDS011;49509;54.996;73.270;2022-09-09T16:24:41;22.50;;;19.50;;
63378;SDS011;49509;54.996;73.270;2022-09-09T16:27:12;22.50;;;21.00;;
63378;SDS011;49509;54.996;73.270;2022-09-09T16:29:46;25.25;;;22.25;;
63378;SDS011;49509;54.996;73.270;2022-09-09T16:32:13;20.75;;;19.50;;
63378;SDS011;49509;54.996;73.270;2022-09-09T16:34:40;22.50;;;21.00;;
63378;SDS011;49509;54.996;73.270;2022-09-09T16:37:08;23.00;;;21.00;;
63378;SDS011;49509;54.996;73.270;2022-09-09T16:39:36;20.00;;;20.00;;
63378;SDS011;49509;54.996;73.270;2022-09-09T16:42:02;24.00;;;24.00;;
63378;SDS011;49509;54.996;73.270;2022-09-09T16:44:40;24.00;;;22.75;;
63378;SDS011;49509;54.996;73.270;2022-09-09T16:47:07;26.50;;;24.25;;
63378;SDS011;49509;54.996;73.270;2022-09-09T16:49:34;21.50;;;20.50;;
63378;SDS011;49509;54.996;73.270;2022-09-09T16:52:09;23.75;;;23.00;;
63378;SDS011;49509;54.996;73.270;2022-09-09T16:54:36;30.00;;;26.25;;